Airfield :
LOGIN :

Register | Disclaimer

   EN    FR    IT 

 










Legend :    VFR   Marginal VFR   IFR   Intensive IFR   Very Intensive IFR
Visi :
Ceiling :
>= 8 km
>= 3000ft
5 to 8 km
1000 to 3000 ft
1500m to 5 km
500 to 1000 ft
800 to 1500m
200 to 500 ft
< 800m
< 200 ft
Symbols :   Thunderstorms  Fog  Heavy snow  Heavy precipitations  Wind > 20 kt
SIGMETs :     Misc.  Thunderstorms  Icing  Turbulence  Mountain Waves  Volcanic Ashes







- Airport Elevation : 726 ft
- IATA code : DIJ
- Download approach charts


LFSD - Dijon

CURRENT METAR :
  • 240830Z AUTO 10003KT 060V160 CAVOK 23/16 Q1020

EXPIRED METARs :
  • 240800Z AUTO 05004KT CAVOK 21/16 Q1021
  • 240730Z AUTO 02003KT 330V070 CAVOK 22/16 Q1021
  • 240700Z AUTO 06003KT 340V120 CAVOK 21/16 Q1021
  • 240630Z AUTO 01007KT 340V040 CAVOK 21/16 Q1021
  • 240600Z AUTO 00000KT CAVOK 20/16 Q1020
  • 240530Z AUTO 01003KT 360V070 CAVOK 20/16 Q1020

Expired Forecast.
No reported NOTAMs for that airfield.



MET'MAP, your aeronautical weather chart ! - Copyright ORBIFLY December 2007 - Disclaimer

ORBIFLY MET'MAP TEAM :

Programming & Development : Alexandra Zaïnal
Concept & Development : Baudouin d'Aumeries
Co-Development & Prog : Marc-Olivier Méhu
Technical & hardware support : Manuel Goepfert

Contact : metmap@orbifly.com




SOURCES & CREDITS :

   NOAA